Time;durP1;ratioP1;P1;durP2;ratioP2;P2;SDS_P1;SDS_P2;PMS_P1;PMS_P2;Temp;Humidity;BMP_temperature;BMP_pressure;BME280_temperature;BME280_humidity;BME280_pressure;Samples;Min_cycle;Max_cycle;Signal;HPM_P1;HPM_P2
2023/04/16 00:00:27;;;;;;;4.88;4.40;;;13.30;37.20;;;;;;4980139;28;20066;-87
2023/04/16 00:02:53;;;;;;;6.32;4.72;;;13.30;37.20;;;;;;4962096;28;20106;-92
2023/04/16 00:05:19;;;;;;;8.05;4.95;;;13.30;37.30;;;;;;4981831;28;20035;-93
2023/04/16 00:07:45;;;;;;;7.22;5.13;;;13.30;37.20;;;;;;5539161;23;21244;-91
2023/04/16 00:10:11;;;;;;;9.02;5.43;;;13.30;37.30;;;;;;5203124;23;20055;-87
2023/04/16 00:12:37;;;;;;;7.32;5.03;;;13.30;37.20;;;;;;4922345;29;20091;-91
2023/04/16 00:15:04;;;;;;;6.20;4.65;;;13.20;37.20;;;;;;4915215;29;20043;-87
2023/04/16 00:17:30;;;;;;;8.32;4.85;;;13.30;37.90;;;;;;4896312;29;20036;-84
2023/04/16 00:19:56;;;;;;;7.72;5.10;;;13.30;37.30;;;;;;4927142;29;20042;-86
2023/04/16 00:22:22;;;;;;;6.68;5.55;;;13.20;37.20;;;;;;4896327;29;20586;-84
2023/04/16 00:24:48;;;;;;;7.07;5.18;;;13.20;37.10;;;;;;4926969;29;20067;-85
2023/04/16 00:27:14;;;;;;;7.45;5.30;;;13.20;37.10;;;;;;4913888;29;20040;-86
2023/04/16 00:29:40;;;;;;;7.50;5.60;;;13.20;37.20;;;;;;4913673;29;20060;-85
2023/04/16 00:32:06;;;;;;;6.40;4.85;;;13.20;37.20;;;;;;4894992;29;20140;-86
2023/04/16 00:34:32;;;;;;;9.40;5.05;;;13.20;37.20;;;;;;4895745;29;20131;-86
2023/04/16 00:36:59;;;;;;;8.60;5.47;;;13.20;37.30;;;;;;4911667;29;20044;-86
2023/04/16 00:39:25;;;;;;;10.05;5.00;;;13.20;37.30;;;;;;4895297;29;20043;-85
2023/04/16 00:41:51;;;;;;;6.30;4.80;;;13.20;37.40;;;;;;4880155;29;20590;-85
2023/04/16 00:44:17;;;;;;;5.22;4.20;;;13.10;37.30;;;;;;4907534;29;20130;-85
2023/04/16 00:46:44;;;;;;;6.65;5.03;;;13.10;37.40;;;;;;4911885;29;20060;-86
2023/04/16 00:49:10;;;;;;;6.35;4.82;;;13.10;37.40;;;;;;4908311;29;20068;-86
2023/04/16 00:51:36;;;;;;;5.50;4.63;;;13.10;37.40;;;;;;4923447;29;20036;-86
2023/04/16 00:54:03;;;;;;;6.32;5.03;;;13.10;37.40;;;;;;4895774;29;20036;-86
2023/04/16 00:56:29;;;;;;;7.10;5.03;;;13.10;37.40;;;;;;4910424;29;20043;-83
2023/04/16 00:58:55;;;;;;;6.93;4.45;;;13.10;37.40;;;;;;4910143;29;20131;-86
2023/04/16 01:01:22;;;;;;;6.93;4.80;;;13.10;37.40;;;;;;4912294;29;20040;-87
2023/04/16 01:03:48;;;;;;;7.00;5.00;;;13.10;37.40;;;;;;4909185;29;20032;-85
2023/04/16 01:06:17;;;;;;;6.63;4.88;;;13.10;37.50;;;;;;4908399;29;20035;-85
2023/04/16 01:08:44;;;;;;;6.13;4.47;;;13.10;37.50;;;;;;4915686;29;20054;-85
2023/04/16 01:11:11;;;;;;;6.07;4.57;;;13.10;37.50;;;;;;4910096;29;20071;-85
2023/04/16 01:13:39;;;;;;;8.25;4.88;;;13.10;37.50;;;;;;4908673;29;20132;-85
2023/04/16 01:16:10;;;;;;;6.60;4.50;;;13.00;37.50;;;;;;4909732;29;20036;-85
2023/04/16 01:18:37;;;;;;;6.70;4.30;;;13.00;37.50;;;;;;4921423;29;20032;-85
2023/04/16 01:21:03;;;;;;;5.72;4.70;;;13.00;37.60;;;;;;4906467;29;20032;-86
2023/04/16 01:23:30;;;;;;;7.45;4.47;;;13.00;37.60;;;;;;4909231;29;20036;-86
2023/04/16 01:25:56;;;;;;;6.72;4.65;;;13.00;37.50;;;;;;4912491;29;20044;-86
2023/04/16 01:28:22;;;;;;;7.03;4.63;;;13.00;37.60;;;;;;4896777;29;20040;-87
2023/04/16 01:30:48;;;;;;;5.93;4.68;;;13.00;37.60;;;;;;4912797;29;20045;-94
2023/04/16 01:33:43;;;;;;;5.93;4.50;;;13.00;37.60;;;;;;4926217;29;20044;-92
2023/04/16 01:36:11;;;;;;;6.38;4.63;;;13.00;37.70;;;;;;4913192;29;20712;-94
2023/04/16 01:38:37;;;;;;;7.18;4.30;;;12.90;37.60;;;;;;4910869;29;20040;-91
2023/04/16 01:41:03;;;;;;;5.20;4.35;;;12.90;37.70;;;;;;4909727;29;20047;-92
2023/04/16 01:43:29;;;;;;;5.95;4.63;;;12.90;38.40;;;;;;4909018;29;20032;-90
2023/04/16 01:46:22;;;;;;;6.82;4.90;;;12.90;37.80;;;;;;4910981;29;20044;-90
2023/04/16 01:48:48;;;;;;;6.93;4.57;;;12.90;37.80;;;;;;4911039;29;20043;-91
2023/04/16 01:51:14;;;;;;;5.10;4.60;;;12.90;37.80;;;;;;4911076;29;20028;-92
2023/04/16 01:53:40;;;;;;;5.55;4.60;;;12.90;37.90;;;;;;5220318;23;20055;-95
2023/04/16 01:56:06;;;;;;;8.70;4.57;;;12.80;37.90;;;;;;4927399;29;20071;-87
2023/04/16 01:58:33;;;;;;;5.85;4.20;;;12.90;37.90;;;;;;4946473;29;20162;-80
2023/04/16 02:00:59;;;;;;;5.88;4.30;;;12.80;37.90;;;;;;4928347;29;20051;-83
2023/04/16 02:03:25;;;;;;;6.07;4.30;;;12.80;37.90;;;;;;4949927;28;20035;-82
2023/04/16 02:05:52;;;;;;;6.38;4.63;;;12.80;37.90;;;;;;4950162;29;20390;-83
2023/04/16 02:08:18;;;;;;;6.38;4.18;;;12.90;38.00;;;;;;4933969;29;20094;-83
2023/04/16 02:10:46;;;;;;;5.25;4.00;;;12.80;38.00;;;;;;4930661;29;20652;-83
2023/04/16 02:13:14;;;;;;;6.18;4.10;;;12.80;38.00;;;;;;4949345;29;20039;-81
2023/04/16 02:15:50;;;;;;;7.38;4.18;;;12.80;38.10;;;;;;4945364;28;20043;-81
2023/04/16 02:18:23;;;;;;;6.00;4.20;;;12.80;38.00;;;;;;4933538;28;20036;-85
2023/04/16 02:20:49;;;;;;;5.07;4.30;;;12.80;38.10;;;;;;4927977;29;20046;-83
2023/04/16 02:23:15;;;;;;;7.30;4.47;;;12.80;38.10;;;;;;4947820;29;20063;-87
2023/04/16 02:25:44;;;;;;;7.13;4.43;;;12.80;38.10;;;;;;4932366;29;20063;-84
2023/04/16 02:28:13;;;;;;;5.07;4.20;;;12.80;38.10;;;;;;4962398;28;20039;-85
2023/04/16 02:30:41;;;;;;;7.00;4.22;;;12.80;38.20;;;;;;4943899;29;20102;-82
2023/04/16 02:33:09;;;;;;;5.13;4.05;;;12.80;38.20;;;;;;4948895;29;20134;-82
2023/04/16 02:35:39;;;;;;;5.10;3.80;;;12.80;38.10;;;;;;4932289;29;20039;-81
2023/04/16 02:38:06;;;;;;;5.95;4.05;;;12.80;38.10;;;;;;4933550;29;20042;-80
2023/04/16 02:40:34;;;;;;;6.00;3.92;;;12.80;38.10;;;;;;4947327;29;20042;-82
2023/04/16 02:43:00;;;;;;;7.03;4.30;;;12.80;38.10;;;;;;4929166;29;20532;-82
2023/04/16 02:45:27;;;;;;;5.57;3.60;;;12.70;38.00;;;;;;4947642;29;20106;-84
2023/04/16 02:47:53;;;;;;;7.10;3.75;;;12.70;38.10;;;;;;4945825;28;20035;-86
2023/04/16 02:50:19;;;;;;;5.28;3.53;;;12.70;38.00;;;;;;4945750;29;20050;-83
2023/04/16 02:52:45;;;;;;;6.60;3.83;;;12.80;38.10;;;;;;4946877;28;20094;-84
2023/04/16 02:55:11;;;;;;;6.63;3.88;;;12.70;38.10;;;;;;4932216;29;20043;-84
2023/04/16 02:57:37;;;;;;;5.25;3.85;;;12.70;38.10;;;;;;4945665;28;20042;-83
2023/04/16 03:00:03;;;;;;;4.30;3.63;;;12.70;38.10;;;;;;4934135;29;20423;-83
2023/04/16 03:02:30;;;;;;;4.75;3.45;;;12.70;38.10;;;;;;4931003;29;20517;-82
2023/04/16 03:04:56;;;;;;;5.95;3.55;;;12.70;38.10;;;;;;4933209;29;20039;-84
2023/04/16 03:07:22;;;;;;;4.10;3.40;;;12.70;38.10;;;;;;4934862;29;20050;-83
2023/04/16 03:09:48;;;;;;;5.28;3.50;;;12.70;38.10;;;;;;4944511;28;20049;-85
2023/04/16 03:12:14;;;;;;;5.00;3.60;;;12.70;38.10;;;;;;4932713;28;20035;-85
2023/04/16 03:14:40;;;;;;;6.22;3.67;;;12.70;38.10;;;;;;4916664;29;20054;-84
2023/04/16 03:17:06;;;;;;;5.07;3.63;;;12.70;38.10;;;;;;4916711;29;20778;-84
2023/04/16 03:19:32;;;;;;;4.75;3.70;;;12.70;38.20;;;;;;4948626;29;20031;-83
2023/04/16 03:21:58;;;;;;;5.65;3.28;;;12.80;38.30;;;;;;4929078;29;20072;-84
2023/04/16 03:24:25;;;;;;;6.25;3.78;;;12.80;38.30;;;;;;4946780;28;20394;-84
2023/04/16 03:26:50;;;;;;;6.45;3.47;;;12.70;38.20;;;;;;4943976;29;20028;-83
2023/04/16 03:29:19;;;;;;;6.82;3.67;;;12.70;38.20;;;;;;4942610;29;20426;-84
2023/04/16 03:31:46;;;;;;;7.25;4.05;;;12.80;38.20;;;;;;4947500;29;20082;-83
2023/04/16 03:34:13;;;;;;;4.10;3.50;;;12.80;38.40;;;;;;4942509;29;20043;-82
2023/04/16 03:36:40;;;;;;;7.07;4.22;;;12.80;38.30;;;;;;4959301;28;20039;-82
2023/04/16 03:39:06;;;;;;;7.07;4.22;;;12.80;38.30;;;;;;4947677;29;21400;-81
2023/04/16 03:41:32;;;;;;;5.93;3.85;;;12.80;38.30;;;;;;4947105;29;20035;-83
2023/04/16 03:43:58;;;;;;;6.80;4.00;;;12.80;38.30;;;;;;4943340;29;20035;-82
2023/04/16 03:46:24;;;;;;;4.63;3.65;;;12.80;38.30;;;;;;4931253;29;20035;-83
2023/04/16 03:48:50;;;;;;;5.25;3.83;;;12.80;38.30;;;;;;4925598;29;20074;-82
2023/04/16 03:51:16;;;;;;;5.60;3.90;;;12.80;38.30;;;;;;4941323;28;20070;-82
2023/04/16 03:53:42;;;;;;;9.10;4.20;;;12.90;38.40;;;;;;4944451;29;20139;-82
2023/04/16 03:56:08;;;;;;;3.95;3.15;;;12.90;38.30;;;;;;4943048;29;20071;-82
2023/04/16 03:58:34;;;;;;;5.47;3.33;;;12.90;38.30;;;;;;4944632;28;20039;-82
2023/04/16 04:01:00;;;;;;;5.18;3.42;;;12.90;38.30;;;;;;4910845;29;20054;-84
2023/04/16 04:03:26;;;;;;;6.30;3.42;;;12.90;38.30;;;;;;4948397;28;20043;-84
2023/04/16 04:05:53;;;;;;;5.47;3.92;;;12.90;38.20;;;;;;4947675;29;20521;-84
2023/04/16 04:08:25;;;;;;;5.10;3.70;;;12.90;38.20;;;;;;4928375;29;20093;-84
2023/04/16 04:10:51;;;;;;;5.97;3.92;;;13.00;38.10;;;;;;4931077;29;20067;-85
2023/04/16 04:13:19;;;;;;;5.75;3.40;;;12.90;38.20;;;;;;4930628;29;20542;-85
2023/04/16 04:15:45;;;;;;;5.22;3.80;;;13.00;38.20;;;;;;4932058;29;20035;-85
2023/04/16 04:18:11;;;;;;;7.47;3.88;;;13.00;38.20;;;;;;4928439;29;20401;-83
2023/04/16 04:20:40;;;;;;;5.07;3.90;;;13.00;38.20;;;;;;4930086;29;20451;-81
2023/04/16 04:23:07;;;;;;;6.88;3.60;;;13.00;38.10;;;;;;4942710;28;20155;-81
2023/04/16 04:25:34;;;;;;;6.53;3.88;;;13.00;38.10;;;;;;4942192;29;20534;-84
2023/04/16 04:28:00;;;;;;;5.93;3.60;;;13.00;38.00;;;;;;4925857;29;20039;-84
2023/04/16 04:30:27;;;;;;;5.63;3.75;;;13.00;38.10;;;;;;4930680;28;20070;-84
2023/04/16 04:32:53;;;;;;;5.47;3.28;;;13.00;38.10;;;;;;4931716;29;20063;-84
2023/04/16 04:35:20;;;;;;;5.28;3.55;;;13.10;38.10;;;;;;4940392;29;20028;-84
2023/04/16 04:37:47;;;;;;;5.95;3.78;;;13.00;38.00;;;;;;4945665;29;20515;-84
2023/04/16 04:40:17;;;;;;;5.45;3.30;;;13.10;38.10;;;;;;4930559;29;20032;-82
2023/04/16 04:42:43;;;;;;;6.70;3.75;;;13.20;38.10;;;;;;4942934;28;20487;-82
2023/04/16 04:45:10;;;;;;;4.70;3.47;;;13.30;38.00;;;;;;4945260;28;20477;-82
2023/04/16 04:47:37;;;;;;;4.57;3.45;;;13.40;37.90;;;;;;4946157;29;20048;-83
2023/04/16 04:50:03;;;;;;;4.38;2.85;;;13.60;38.00;;;;;;4941438;29;20039;-82
2023/04/16 04:52:31;;;;;;;3.55;3.00;;;13.70;38.10;;;;;;4946658;29;20039;-82
2023/04/16 04:54:57;;;;;;;4.28;3.35;;;13.90;38.20;;;;;;4930224;29;20052;-82
2023/04/16 04:57:23;;;;;;;3.25;2.95;;;14.00;38.20;;;;;;4943408;28;20063;-83
2023/04/16 04:59:52;;;;;;;4.00;2.60;;;14.20;38.40;;;;;;4931319;28;20031;-83
2023/04/16 05:02:19;;;;;;;3.78;3.00;;;14.30;38.50;;;;;;4929769;29;20165;-85
2023/04/16 05:04:44;;;;;;;4.15;2.30;;;14.40;38.40;;;;;;4930942;29;20133;-83
2023/04/16 05:07:10;;;;;;;4.88;3.20;;;14.60;38.30;;;;;;4942482;28;20039;-82
2023/04/16 05:09:36;;;;;;;4.22;2.80;;;14.70;38.10;;;;;;4944076;28;20098;-82
2023/04/16 05:12:03;;;;;;;3.85;3.03;;;14.80;38.00;;;;;;4943179;29;20035;-83
2023/04/16 05:14:29;;;;;;;4.43;2.90;;;14.90;38.00;;;;;;4958319;28;20118;-84
2023/04/16 05:16:55;;;;;;;3.10;2.40;;;15.00;37.90;;;;;;4946813;28;20696;-83
2023/04/16 05:19:21;;;;;;;4.05;2.67;;;15.10;37.90;;;;;;4942137;28;20542;-82
2023/04/16 05:21:47;;;;;;;3.70;2.55;;;15.20;37.90;;;;;;4945315;29;20035;-83
2023/04/16 05:24:13;;;;;;;4.28;2.65;;;15.30;38.00;;;;;;4943072;29;20035;-83
2023/04/16 05:26:38;;;;;;;4.57;3.38;;;15.30;37.90;;;;;;4944827;28;20170;-82
2023/04/16 05:29:04;;;;;;;3.80;2.80;;;15.50;37.90;;;;;;4942658;29;20471;-82
2023/04/16 05:31:30;;;;;;;3.58;2.63;;;15.50;37.90;;;;;;4943954;28;20039;-83
2023/04/16 05:33:56;;;;;;;4.85;2.88;;;15.60;37.70;;;;;;4941362;28;20077;-82
2023/04/16 05:36:22;;;;;;;4.35;3.08;;;15.70;37.80;;;;;;4944078;28;20035;-83
2023/04/16 05:38:48;;;;;;;3.80;2.95;;;15.70;37.60;;;;;;4950325;29;20031;-85
2023/04/16 05:41:14;;;;;;;3.58;2.90;;;15.80;37.60;;;;;;4946996;29;20047;-83
2023/04/16 05:43:40;;;;;;;3.53;2.65;;;15.90;37.70;;;;;;4946789;28;20035;-85
2023/04/16 05:46:06;;;;;;;3.88;2.83;;;15.90;37.80;;;;;;4951051;29;20035;-84
2023/04/16 05:48:32;;;;;;;3.95;2.63;;;16.00;37.70;;;;;;4948895;28;20041;-84
2023/04/16 05:50:58;;;;;;;5.38;2.80;;;16.10;37.70;;;;;;4934999;29;20036;-80
2023/04/16 05:53:24;;;;;;;3.72;2.75;;;16.10;37.70;;;;;;4945020;28;20047;-82
2023/04/16 05:55:50;;;;;;;4.38;2.80;;;16.20;37.70;;;;;;4917721;29;20069;-80
2023/04/16 05:58:16;;;;;;;4.45;3.25;;;16.20;37.60;;;;;;4946074;28;20511;-81
2023/04/16 06:00:42;;;;;;;4.88;2.80;;;16.30;37.60;;;;;;4948915;28;20597;-83
2023/04/16 06:03:08;;;;;;;4.65;2.97;;;16.40;37.50;;;;;;4945307;28;20032;-84
2023/04/16 06:05:34;;;;;;;5.70;3.28;;;16.40;37.40;;;;;;4947245;28;20059;-85
2023/04/16 06:08:00;;;;;;;3.53;2.40;;;16.50;37.30;;;;;;4942586;28;20123;-84
2023/04/16 06:10:26;;;;;;;4.50;2.78;;;16.50;37.50;;;;;;4943934;28;20039;-86
2023/04/16 06:12:52;;;;;;;5.18;2.97;;;16.60;37.40;;;;;;4945162;28;20039;-83
2023/04/16 06:15:18;;;;;;;5.15;2.83;;;16.70;37.40;;;;;;4942194;28;20602;-84
2023/04/16 06:17:44;;;;;;;3.25;2.95;;;16.70;37.30;;;;;;4933486;29;20114;-82
2023/04/16 06:20:11;;;;;;;5.85;3.38;;;16.80;37.40;;;;;;4943303;29;20043;-81
2023/04/16 06:22:37;;;;;;;5.15;2.72;;;16.90;37.40;;;;;;4945251;28;20036;-84
2023/04/16 06:25:03;;;;;;;5.40;3.03;;;17.00;37.30;;;;;;4932228;29;20490;-84
2023/04/16 06:27:30;;;;;;;5.28;2.90;;;17.10;37.20;;;;;;4945864;28;20042;-83
2023/04/16 06:29:56;;;;;;;4.18;2.95;;;17.10;37.20;;;;;;4944953;29;20562;-86
2023/04/16 06:32:23;;;;;;;3.13;2.63;;;17.20;37.20;;;;;;4949068;28;20043;-88
2023/04/16 06:34:49;;;;;;;4.30;2.92;;;17.20;37.20;;;;;;4930046;29;20070;-89
2023/04/16 06:37:15;;;;;;;4.28;2.80;;;17.40;37.10;;;;;;4940442;29;20047;-88
2023/04/16 06:39:44;;;;;;;4.22;3.00;;;17.50;37.70;;;;;;4946215;28;20114;-88
2023/04/16 06:42:33;;;;;;;4.00;2.65;;;17.50;37.00;;;;;;4946196;28;20069;-84
2023/04/16 06:44:59;;;;;;;4.60;3.15;;;17.60;37.60;;;;;;4951150;28;20079;-86
2023/04/16 06:47:25;;;;;;;4.03;3.13;;;17.70;36.90;;;;;;4946838;28;20515;-81
2023/04/16 06:49:51;;;;;;;4.25;2.75;;;17.80;36.80;;;;;;4945745;29;20038;-77
2023/04/16 06:52:17;;;;;;;3.72;2.47;;;17.80;36.70;;;;;;4944763;28;20039;-82
2023/04/16 06:54:43;;;;;;;3.22;2.55;;;17.90;36.70;;;;;;4945681;28;20047;-79
2023/04/16 06:57:10;;;;;;;5.88;2.60;;;18.00;36.70;;;;;;4945479;28;20574;-79
2023/04/16 06:59:36;;;;;;;3.08;2.40;;;18.00;36.60;;;;;;4944116;28;20071;-76
2023/04/16 07:02:02;;;;;;;3.65;2.47;;;18.10;36.60;;;;;;4944050;28;20102;-81
2023/04/16 07:04:27;;;;;;;2.58;2.35;;;18.20;36.30;;;;;;4944055;29;20043;-78
2023/04/16 07:06:53;;;;;;;2.70;2.40;;;18.30;36.40;;;;;;4960011;28;20054;-80
2023/04/16 07:09:19;;;;;;;4.68;2.55;;;18.30;36.20;;;;;;4944040;28;20035;-76
2023/04/16 07:11:45;;;;;;;3.63;2.60;;;18.40;36.20;;;;;;4945435;28;20081;-77
2023/04/16 07:14:12;;;;;;;5.25;2.75;;;18.40;35.70;;;;;;4943886;28;20511;-78
2023/04/16 07:16:38;;;;;;;4.38;2.95;;;18.50;33.40;;;;;;4944161;28;20527;-77
2023/04/16 07:19:04;;;;;;;4.20;2.97;;;18.50;32.00;;;;;;4931565;29;20050;-76
2023/04/16 07:21:30;;;;;;;9.45;3.15;;;18.50;31.00;;;;;;4929769;28;20034;-81
2023/04/16 07:23:56;;;;;;;4.10;3.38;;;18.50;30.50;;;;;;4944232;29;20099;-77
2023/04/16 07:26:22;;;;;;;5.32;3.33;;;18.50;29.90;;;;;;4945337;28;20150;-74
2023/04/16 07:28:48;;;;;;;3.83;2.88;;;18.40;30.40;;;;;;4943316;29;20598;-75
2023/04/16 07:31:14;;;;;;;4.00;3.10;;;18.40;31.80;;;;;;4941996;29;20082;-76
2023/04/16 07:33:40;;;;;;;4.50;3.15;;;18.40;31.00;;;;;;4946450;28;20044;-77
2023/04/16 07:36:06;;;;;;;5.32;3.30;;;18.30;30.00;;;;;;4948564;28;20064;-87
2023/04/16 07:38:33;;;;;;;5.57;3.33;;;18.30;29.70;;;;;;4917680;29;20518;-81
2023/04/16 07:41:00;;;;;;;4.80;3.30;;;18.30;29.70;;;;;;4942608;29;20043;-78
2023/04/16 07:43:26;;;;;;;6.40;3.88;;;18.20;29.30;;;;;;4947533;28;20042;-80
2023/04/16 07:45:51;;;;;;;4.10;2.88;;;18.20;29.20;;;;;;4951697;28;20031;-77
2023/04/16 07:48:17;;;;;;;5.40;3.65;;;18.20;29.50;;;;;;4945449;28;20042;-76
2023/04/16 07:50:43;;;;;;;7.53;3.70;;;18.10;29.50;;;;;;4951388;29;20082;-76
2023/04/16 07:53:10;;;;;;;4.63;3.20;;;18.10;29.50;;;;;;4942742;28;20035;-76
2023/04/16 07:55:36;;;;;;;4.00;3.20;;;18.10;29.40;;;;;;4944345;28;20688;-77
2023/04/16 07:58:02;;;;;;;6.15;3.17;;;18.10;29.10;;;;;;4942375;29;20430;-76
2023/04/16 08:00:28;;;;;;;4.15;2.60;;;18.00;28.60;;;;;;4945287;28;20035;-76
2023/04/16 08:02:54;;;;;;;5.60;2.80;;;18.00;28.40;;;;;;4944488;29;20030;-79
2023/04/16 08:05:20;;;;;;;4.55;3.50;;;17.90;28.40;;;;;;4944685;28;20036;-78
2023/04/16 08:07:49;;;;;;;3.97;2.85;;;17.90;28.60;;;;;;4945890;29;20050;-77
2023/04/16 08:10:15;;;;;;;4.68;2.90;;;17.90;28.60;;;;;;4945986;28;20047;-76
2023/04/16 08:12:40;;;;;;;3.92;2.80;;;17.80;28.50;;;;;;4930720;29;20046;-81
2023/04/16 08:15:07;;;;;;;4.60;3.00;;;17.80;28.80;;;;;;4931552;29;20122;-79
2023/04/16 08:17:33;;;;;;;4.53;2.70;;;17.70;28.30;;;;;;4943633;28;20039;-79
2023/04/16 08:19:59;;;;;;;4.22;2.70;;;17.70;28.50;;;;;;4944203;28;20039;-80
2023/04/16 08:22:25;;;;;;;3.20;2.78;;;17.60;28.80;;;;;;4942531;28;20415;-78
2023/04/16 08:24:51;;;;;;;4.22;2.50;;;17.50;28.80;;;;;;4942677;28;20046;-77
2023/04/16 08:27:17;;;;;;;4.50;2.90;;;17.60;28.90;;;;;;4942617;28;20134;-77
2023/04/16 08:29:43;;;;;;;3.35;2.83;;;17.50;28.70;;;;;;4943122;29;20054;-77
2023/04/16 08:32:11;;;;;;;4.22;3.05;;;17.40;28.90;;;;;;4941412;28;20059;-78
2023/04/16 08:34:37;;;;;;;4.07;2.97;;;17.40;29.00;;;;;;4943037;28;20114;-77
2023/04/16 08:37:03;;;;;;;6.50;3.00;;;17.40;29.20;;;;;;4944023;28;20084;-76
2023/04/16 08:39:29;;;;;;;4.22;3.05;;;17.30;29.00;;;;;;4925755;28;20051;-75
2023/04/16 08:41:57;;;;;;;4.28;2.72;;;17.30;29.00;;;;;;4945398;29;20442;-77
2023/04/16 08:44:29;;;;;;;5.60;2.97;;;17.30;29.10;;;;;;4945048;28;20119;-74
2023/04/16 08:46:57;;;;;;;4.60;2.90;;;17.20;28.90;;;;;;4944527;28;20418;-78
2023/04/16 08:49:25;;;;;;;7.18;4.43;;;17.20;28.90;;;;;;4942064;29;20035;-78
2023/04/16 08:51:53;;;;;;;6.40;5.28;;;17.20;29.50;;;;;;4942453;28;20099;-77
2023/04/16 08:54:36;;;;;;;7.28;6.57;;;17.20;30.00;;;;;;4942706;28;20048;-74
2023/04/16 08:57:05;;;;;;;7.07;5.72;;;17.20;29.70;;;;;;4944178;29;20067;-77
2023/04/16 08:59:32;;;;;;;6.78;5.43;;;17.20;29.50;;;;;;4942459;28;20070;-78
2023/04/16 09:01:59;;;;;;;8.65;5.57;;;17.10;29.50;;;;;;4941842;28;20075;-79
2023/04/16 09:04:29;;;;;;;7.18;5.13;;;17.10;29.40;;;;;;4941278;28;20073;-76
2023/04/16 09:06:57;;;;;;;5.82;5.32;;;17.10;29.40;;;;;;4942101;28;20086;-81
2023/04/16 09:09:25;;;;;;;7.47;4.93;;;17.10;29.60;;;;;;4942029;28;20032;-80
2023/04/16 09:11:52;;;;;;;7.80;4.68;;;17.10;29.50;;;;;;4941838;28;20035;-77
2023/04/16 09:14:18;;;;;;;6.50;4.07;;;17.00;29.70;;;;;;4941117;28;20094;-85
2023/04/16 09:16:48;;;;;;;4.82;3.90;;;17.00;29.50;;;;;;4943586;28;20039;-77
2023/04/16 09:19:15;;;;;;;10.40;3.67;;;17.00;29.40;;;;;;4940537;28;20039;-79
2023/04/16 09:21:44;;;;;;;5.80;4.00;;;16.90;29.70;;;;;;4939528;29;20043;-78
2023/04/16 09:24:11;;;;;;;5.13;4.18;;;16.90;29.70;;;;;;4942257;29;20406;-77
2023/04/16 09:26:37;;;;;;;6.10;3.67;;;16.90;29.60;;;;;;4941300;29;20087;-79
2023/04/16 09:29:03;;;;;;;4.88;4.00;;;16.90;29.70;;;;;;4940463;28;20039;-77
2023/04/16 09:31:29;;;;;;;8.68;4.55;;;16.90;29.80;;;;;;4941242;28;20043;-78
2023/04/16 09:34:01;;;;;;;5.07;4.22;;;16.90;30.00;;;;;;4938655;28;20725;-78
2023/04/16 09:36:27;;;;;;;7.47;4.30;;;16.90;30.00;;;;;;4940946;29;20050;-77
2023/04/16 09:38:54;;;;;;;6.45;4.65;;;16.80;30.00;;;;;;4943104;28;20431;-78
2023/04/16 09:41:31;;;;;;;9.68;4.50;;;16.80;31.50;;;;;;4948225;28;20535;-78
2023/04/16 09:44:00;;;;;;;5.93;4.10;;;16.80;30.90;;;;;;4946896;28;20453;-76
2023/04/16 09:46:32;;;;;;;8.18;4.15;;;16.80;30.20;;;;;;4947489;28;20043;-77
2023/04/16 09:49:14;;;;;;;5.95;3.80;;;16.80;30.00;;;;;;4945919;28;20137;-77
2023/04/16 09:51:40;;;;;;;4.75;3.72;;;16.70;29.80;;;;;;4946724;28;20757;-75
2023/04/16 09:54:07;;;;;;;6.57;3.75;;;16.70;29.70;;;;;;4940413;28;20058;-76
2023/04/16 09:56:38;;;;;;;4.75;4.18;;;16.70;29.80;;;;;;4942089;28;20054;-76
2023/04/16 09:59:04;;;;;;;5.30;3.88;;;16.70;29.90;;;;;;4941296;28;20050;-76
2023/04/16 10:01:30;;;;;;;7.00;3.90;;;16.70;30.00;;;;;;4941685;29;20487;-78
2023/04/16 10:03:57;;;;;;;7.82;3.67;;;16.70;29.80;;;;;;4942608;29;20046;-79
2023/04/16 10:06:26;;;;;;;6.95;4.28;;;16.60;34.40;;;;;;4942794;29;21044;-84
2023/04/16 10:08:56;;;;;;;5.32;3.85;;;16.60;32.80;;;;;;4942213;28;20031;-80
2023/04/16 10:11:23;;;;;;;8.43;4.20;;;16.60;32.00;;;;;;4944916;28;20078;-83
2023/04/16 10:13:50;;;;;;;6.68;4.57;;;16.60;31.30;;;;;;4942804;29;20055;-84
2023/04/16 10:16:17;;;;;;;7.53;4.85;;;16.60;31.00;;;;;;4940829;29;20570;-78
2023/04/16 10:18:44;;;;;;;9.38;4.57;;;16.60;30.50;;;;;;4941307;28;20054;-80
2023/04/16 10:21:11;;;;;;;7.07;4.80;;;16.60;30.40;;;;;;4943122;28;20032;-83
2023/04/16 10:23:42;;;;;;;6.55;4.65;;;16.50;30.00;;;;;;4941136;28;20069;-82
2023/04/16 10:26:08;;;;;;;6.47;4.43;;;16.50;30.30;;;;;;4945779;28;20042;-84
2023/04/16 10:28:35;;;;;;;8.57;4.85;;;16.50;30.80;;;;;;4928394;28;20039;-81
2023/04/16 10:31:06;;;;;;;5.35;4.05;;;16.50;31.20;;;;;;4946672;28;20036;-84
2023/04/16 10:33:35;;;;;;;4.85;3.92;;;16.50;31.60;;;;;;4946618;28;20131;-80
2023/04/16 10:36:12;;;;;;;5.28;4.07;;;16.50;31.40;;;;;;4946382;28;20031;-79
2023/04/16 10:38:45;;;;;;;7.30;3.70;;;16.40;30.90;;;;;;4945019;28;20070;-84
2023/04/16 10:41:11;;;;;;;6.30;3.38;;;16.40;30.20;;;;;;4948118;29;20038;-79
2023/04/16 10:43:45;;;;;;;5.47;3.35;;;16.40;29.90;;;;;;4931421;29;20129;-81
2023/04/16 10:46:20;;;;;;;5.57;4.00;;;16.40;29.90;;;;;;4943331;28;20063;-80
2023/04/16 10:48:47;;;;;;;8.77;3.78;;;16.30;29.80;;;;;;4949764;28;20064;-82
2023/04/16 10:51:33;;;;;;;7.28;3.92;;;16.30;29.70;;;;;;4948869;28;20442;-85
2023/04/16 10:54:01;;;;;;;;;;;16.30;29.90;;;;;;4949063;28;20608;-86
2023/04/16 10:56:31;;;;;;;5.65;3.95;;;16.30;29.80;;;;;;4947272;28;19929;-79
2023/04/16 10:58:57;;;;;;;8.70;4.88;;;16.30;30.60;;;;;;4950295;28;20067;-80
2023/04/16 11:01:51;;;;;;;7.43;4.75;;;16.30;30.80;;;;;;4949742;28;20051;-79
2023/04/16 11:04:19;;;;;;;8.98;5.47;;;16.30;31.00;;;;;;4948523;28;20039;-82
2023/04/16 11:07:13;;;;;;;7.75;5.18;;;16.30;31.40;;;;;;4947416;28;20077;-82
2023/04/16 11:09:51;;;;;;;6.50;4.82;;;16.20;31.60;;;;;;4948842;28;20058;-79
2023/04/16 11:12:38;;;;;;;7.78;5.38;;;16.30;32.00;;;;;;4949408;28;20078;-80
2023/04/16 11:15:06;;;;;;;7.45;4.75;;;16.30;31.80;;;;;;4943334;28;20439;-81
2023/04/16 11:17:40;;;;;;;7.07;4.75;;;16.30;32.00;;;;;;4949344;28;20126;-78
2023/04/16 11:20:21;;;;;;;5.72;4.55;;;16.20;31.10;;;;;;4946363;28;20032;-76
2023/04/16 11:22:52;;;;;;;8.20;4.45;;;16.30;31.00;;;;;;4948252;28;20046;-77
2023/04/16 11:25:30;;;;;;;5.55;4.22;;;16.20;31.30;;;;;;4947267;28;20031;-80
2023/04/16 11:27:59;;;;;;;7.55;4.10;;;16.30;32.00;;;;;;4949888;28;20042;-83
2023/04/16 11:30:29;;;;;;;7.00;4.47;;;16.30;32.40;;;;;;4947511;28;20455;-83
2023/04/16 11:32:55;;;;;;;6.45;4.25;;;16.30;32.70;;;;;;4946711;28;20051;-84
2023/04/16 11:35:21;;;;;;;8.35;3.85;;;16.30;32.60;;;;;;4945165;28;20043;-85
2023/04/16 11:37:47;;;;;;;5.40;3.60;;;16.30;32.60;;;;;;4945983;28;20035;-81
2023/04/16 11:40:14;;;;;;;4.82;3.75;;;16.30;32.70;;;;;;4944730;28;20186;-85
2023/04/16 11:42:41;;;;;;;7.57;3.80;;;16.30;33.00;;;;;;4943324;29;20036;-83
2023/04/16 11:45:08;;;;;;;5.25;3.60;;;16.40;33.60;;;;;;4946615;28;20036;-87
2023/04/16 11:47:46;;;;;;;5.00;3.35;;;16.40;33.70;;;;;;4944619;28;20032;-85
2023/04/16 11:50:16;;;;;;;5.68;4.00;;;16.40;33.70;;;;;;4945236;28;20027;-79
2023/04/16 11:52:42;;;;;;;5.57;4.13;;;16.50;34.00;;;;;;4945267;28;20033;-77
2023/04/16 11:55:08;;;;;;;6.72;3.83;;;16.50;34.30;;;;;;4926495;29;20511;-84
2023/04/16 11:57:34;;;;;;;7.20;3.47;;;16.50;34.40;;;;;;4942511;28;20154;-85
2023/04/16 12:00:00;;;;;;;4.35;3.22;;;16.50;34.40;;;;;;4944979;29;20406;-83
2023/04/16 12:02:37;;;;;;;6.03;3.55;;;16.50;33.50;;;;;;4926559;29;20032;-85
2023/04/16 12:05:06;;;;;;;5.47;3.70;;;16.50;32.10;;;;;;4942323;29;20629;-87
2023/04/16 12:07:43;;;;;;;6.03;3.90;;;16.50;31.70;;;;;;4944397;28;20067;-84
2023/04/16 12:10:09;;;;;;;6.05;4.18;;;16.50;32.10;;;;;;4943948;29;20122;-85
2023/04/16 12:12:36;;;;;;;6.25;4.10;;;16.50;32.10;;;;;;4943500;28;20047;-83
2023/04/16 12:15:02;;;;;;;8.30;3.80;;;16.60;32.30;;;;;;4942237;29;20042;-78
2023/04/16 12:17:32;;;;;;;7.13;3.88;;;16.50;32.20;;;;;;4943118;28;20114;-78
2023/04/16 12:20:01;;;;;;;6.18;4.15;;;16.60;32.50;;;;;;4927180;29;20031;-78
2023/04/16 12:22:34;;;;;;;6.45;3.70;;;16.60;32.80;;;;;;4943636;29;20035;-77
2023/04/16 12:25:05;;;;;;;4.40;3.03;;;16.60;32.60;;;;;;4927445;29;20533;-76
2023/04/16 12:27:42;;;;;;;5.18;3.90;;;16.60;32.60;;;;;;4943006;29;20449;-75
2023/04/16 12:30:08;;;;;;;5.65;3.63;;;16.60;32.70;;;;;;4942116;29;20027;-77
2023/04/16 12:32:34;;;;;;;4.28;3.40;;;16.60;33.10;;;;;;4943254;28;20042;-76
2023/04/16 12:35:01;;;;;;;7.10;3.47;;;16.60;33.10;;;;;;4942463;29;20035;-77
2023/04/16 12:37:27;;;;;;;6.30;3.83;;;16.60;32.80;;;;;;4948667;28;20087;-78
2023/04/16 12:39:53;;;;;;;4.40;3.45;;;16.70;32.90;;;;;;4942817;29;20052;-76
2023/04/16 12:42:20;;;;;;;5.00;3.55;;;16.60;32.20;;;;;;4945384;28;20035;-78
2023/04/16 12:44:46;;;;;;;5.95;3.72;;;16.70;32.10;;;;;;4940535;29;20042;-78
2023/04/16 12:47:12;;;;;;;7.35;3.67;;;16.70;33.00;;;;;;4942890;28;20039;-78
2023/04/16 12:49:38;;;;;;;6.35;3.30;;;16.70;32.60;;;;;;4942623;28;20090;-81